Time;durP1;ratioP1;P1;durP2;ratioP2;P2;SDS_P1;SDS_P2;PMS_P1;PMS_P2;Temp;Humidity;BMP_temperature;BMP_pressure;BME280_temperature;BME280_humidity;BME280_pressure;Samples;Min_cycle;Max_cycle;Signal;HPM_P1;HPM_P2
2021/05/03 00:01:59;;;;;;;2.03;1.10;;;18.00;30.70;;;;;;4341004;33;20185;-38
2021/05/03 00:04:25;;;;;;;1.00;0.70;;;18.00;30.60;;;;;;4341205;33;20160;-38
2021/05/03 00:06:52;;;;;;;1.55;0.68;;;18.00;30.60;;;;;;4341246;33;20653;-35
2021/05/03 00:09:18;;;;;;;1.48;0.70;;;18.00;30.70;;;;;;4340715;33;20087;-34
2021/05/03 00:11:44;;;;;;;3.70;1.48;;;18.00;30.60;;;;;;4340929;33;20073;-35
2021/05/03 00:14:11;;;;;;;3.70;2.35;;;18.00;31.20;;;;;;4340643;33;20078;-35
2021/05/03 00:16:37;;;;;;;6.30;4.40;;;17.90;31.90;;;;;;4342290;32;20133;-34
2021/05/03 00:19:04;;;;;;;8.88;4.12;;;17.70;32.90;;;;;;4343194;32;20122;-33
2021/05/03 00:21:30;;;;;;;8.50;5.82;;;17.60;33.70;;;;;;4365926;32;20074;-34
2021/05/03 00:23:57;;;;;;;9.55;4.45;;;17.40;34.20;;;;;;4374724;32;20549;-33
2021/05/03 00:26:24;;;;;;;12.57;5.43;;;17.10;34.60;;;;;;4376025;32;20169;-34
2021/05/03 00:28:50;;;;;;;5.53;2.37;;;16.90;35.00;;;;;;4376445;32;20084;-32
2021/05/03 00:31:16;;;;;;;4.53;3.87;;;16.70;34.70;;;;;;4376198;32;20070;-33
2021/05/03 00:33:43;;;;;;;5.47;4.70;;;16.70;35.30;;;;;;4375781;32;20060;-32
2021/05/03 00:36:09;;;;;;;8.15;4.95;;;16.60;35.50;;;;;;4376096;32;20050;-34
2021/05/03 00:38:38;;;;;;;6.05;4.37;;;16.50;35.90;;;;;;4375581;32;20058;-34
2021/05/03 00:41:05;;;;;;;9.27;3.62;;;16.40;36.00;;;;;;4375875;32;20623;-33
2021/05/03 00:43:31;;;;;;;6.45;3.50;;;16.40;36.00;;;;;;4376032;32;20057;-33
2021/05/03 00:45:58;;;;;;;8.70;4.28;;;16.30;35.90;;;;;;4375621;32;20101;-35
2021/05/03 00:48:24;;;;;;;9.23;3.08;;;16.30;36.20;;;;;;4375689;32;20105;-34
2021/05/03 00:50:51;;;;;;;6.00;3.90;;;16.30;36.20;;;;;;4375834;32;20063;-33
2021/05/03 00:53:18;;;;;;;7.00;4.65;;;16.20;36.60;;;;;;4374201;32;20165;-34
2021/05/03 00:55:46;;;;;;;5.50;3.28;;;16.20;36.90;;;;;;4373989;32;20093;-34
2021/05/03 00:58:12;;;;;;;5.40;2.17;;;16.20;37.00;;;;;;4375428;32;20127;-34
2021/05/03 01:00:39;;;;;;;3.40;1.50;;;16.20;36.70;;;;;;4373730;32;20158;-34
2021/05/03 01:03:06;;;;;;;2.72;1.35;;;16.20;36.20;;;;;;4375604;32;20080;-34
2021/05/03 01:05:33;;;;;;;4.62;0.98;;;16.10;36.20;;;;;;4375406;32;20074;-35
2021/05/03 01:08:00;;;;;;;3.60;1.00;;;16.10;36.10;;;;;;4375540;32;20069;-34
2021/05/03 01:10:27;;;;;;;2.42;0.98;;;16.00;35.70;;;;;;4375419;32;20532;-35
2021/05/03 01:12:54;;;;;;;1.58;1.10;;;16.00;35.60;;;;;;4375551;32;20069;-35
2021/05/03 01:15:24;;;;;;;3.05;0.82;;;16.00;35.30;;;;;;4375662;32;20065;-32
2021/05/03 01:17:59;;;;;;;4.80;1.02;;;16.00;35.30;;;;;;4384261;32;20066;-34
2021/05/03 01:20:28;;;;;;;1.62;0.90;;;16.10;35.00;;;;;;4390718;32;20086;-34
2021/05/03 01:22:57;;;;;;;8.77;1.10;;;16.20;34.80;;;;;;4389113;32;20116;-34
2021/05/03 01:25:30;;;;;;;2.60;1.33;;;16.30;34.70;;;;;;4390216;32;20049;-37
2021/05/03 01:27:57;;;;;;;2.35;0.80;;;16.40;34.40;;;;;;4388786;32;20105;-38
2021/05/03 01:30:34;;;;;;;2.05;0.75;;;16.60;34.30;;;;;;4390545;32;20077;-34
2021/05/03 01:33:01;;;;;;;1.42;0.70;;;16.70;34.10;;;;;;4390185;32;20066;-34
2021/05/03 01:35:27;;;;;;;1.80;0.68;;;16.70;33.80;;;;;;4388585;32;20105;-34
2021/05/03 01:37:55;;;;;;;4.45;0.85;;;16.80;33.70;;;;;;4390087;32;20063;-34
2021/05/03 01:40:25;;;;;;;1.52;1.00;;;16.90;33.60;;;;;;4388895;32;20081;-34
2021/05/03 01:42:52;;;;;;;12.18;0.93;;;16.90;33.60;;;;;;4390058;32;20165;-35
2021/05/03 01:45:22;;;;;;;3.75;1.10;;;17.00;33.90;;;;;;4388524;32;20128;-34
2021/05/03 01:47:52;;;;;;;3.60;0.90;;;17.00;33.80;;;;;;4388593;32;20065;-37
2021/05/03 01:50:22;;;;;;;2.78;1.40;;;17.10;33.40;;;;;;4390304;32;20101;-34
2021/05/03 01:52:50;;;;;;;2.65;0.80;;;17.10;34.10;;;;;;4389719;32;20100;-34
2021/05/03 01:55:18;;;;;;;2.67;1.00;;;17.20;33.90;;;;;;4389621;32;20555;-34
2021/05/03 01:57:45;;;;;;;2.12;1.15;;;17.30;33.70;;;;;;4389975;32;20085;-34
2021/05/03 02:00:13;;;;;;;2.58;0.70;;;17.30;33.40;;;;;;4389855;32;20483;-33
2021/05/03 02:02:40;;;;;;;1.70;0.88;;;17.40;33.50;;;;;;4389809;32;20473;-37
2021/05/03 02:05:07;;;;;;;6.53;1.17;;;17.40;33.50;;;;;;4388075;32;20683;-33
2021/05/03 02:07:34;;;;;;;3.03;0.70;;;17.50;33.70;;;;;;4389944;32;20054;-34
2021/05/03 02:10:01;;;;;;;2.65;0.90;;;17.50;33.20;;;;;;4389776;32;20081;-34
2021/05/03 02:12:27;;;;;;;6.20;1.37;;;17.60;33.00;;;;;;4388079;32;20089;-33
2021/05/03 02:14:54;;;;;;;2.08;0.85;;;17.60;33.30;;;;;;4389627;32;20153;-33
2021/05/03 02:17:20;;;;;;;2.55;1.00;;;17.60;33.00;;;;;;4369922;32;20577;-33
2021/05/03 02:19:46;;;;;;;2.97;1.00;;;17.70;32.80;;;;;;4374600;32;20183;-34
2021/05/03 02:22:13;;;;;;;17.30;2.60;;;17.70;32.70;;;;;;4374142;32;20112;-35
2021/05/03 02:24:39;;;;;;;3.50;1.25;;;17.80;32.70;;;;;;4374777;32;20122;-33
2021/05/03 02:27:09;;;;;;;5.72;1.75;;;17.80;32.60;;;;;;4374214;32;20181;-34
2021/05/03 02:29:35;;;;;;;3.05;1.08;;;17.80;32.60;;;;;;4374839;32;20568;-33
2021/05/03 02:32:02;;;;;;;5.62;1.00;;;17.90;32.50;;;;;;4373959;32;20084;-34
2021/05/03 02:34:28;;;;;;;1.70;0.77;;;17.90;32.90;;;;;;4374331;32;20062;-33
2021/05/03 02:36:56;;;;;;;3.00;1.08;;;17.90;32.90;;;;;;4374114;32;20157;-33
2021/05/03 02:39:22;;;;;;;1.75;0.80;;;17.90;32.70;;;;;;4374394;32;20124;-33
2021/05/03 02:41:49;;;;;;;2.42;1.23;;;17.90;32.70;;;;;;4372401;32;20487;-33
2021/05/03 02:44:15;;;;;;;1.08;0.50;;;18.00;32.70;;;;;;4374368;32;20070;-32
2021/05/03 02:46:42;;;;;;;1.05;0.80;;;18.00;32.80;;;;;;4373465;32;20135;-36
2021/05/03 02:49:08;;;;;;;1.20;0.70;;;18.00;32.60;;;;;;4373753;32;20077;-35
2021/05/03 02:51:36;;;;;;;1.00;0.77;;;18.10;32.60;;;;;;4373656;32;20548;-34
2021/05/03 02:54:05;;;;;;;2.55;0.77;;;18.10;32.80;;;;;;4374072;32;20058;-34
2021/05/03 02:56:31;;;;;;;1.85;0.80;;;18.10;33.40;;;;;;4372593;32;20238;-34
2021/05/03 02:58:58;;;;;;;1.20;0.80;;;18.20;32.60;;;;;;4372276;32;20066;-34
2021/05/03 03:01:24;;;;;;;3.65;1.30;;;18.30;33.30;;;;;;4373604;32;20070;-34
2021/05/03 03:03:51;;;;;;;1.45;0.80;;;18.40;32.50;;;;;;4373799;32;20137;-34
2021/05/03 03:06:17;;;;;;;1.58;0.77;;;18.40;32.40;;;;;;4373730;32;20063;-34
2021/05/03 03:08:43;;;;;;;2.95;1.00;;;18.50;32.30;;;;;;4374025;32;20086;-34
2021/05/03 03:11:10;;;;;;;2.95;0.60;;;18.50;32.50;;;;;;4373529;32;20146;-35
2021/05/03 03:13:36;;;;;;;1.77;1.02;;;18.60;32.30;;;;;;4373706;32;20556;-33
2021/05/03 03:16:03;;;;;;;19.67;3.67;;;18.60;32.30;;;;;;4373347;32;20136;-35
2021/05/03 03:18:29;;;;;;;5.78;1.87;;;18.70;33.10;;;;;;4386606;32;20077;-34
2021/05/03 03:20:55;;;;;;;3.03;0.90;;;18.80;32.30;;;;;;4387081;32;20092;-34
2021/05/03 03:23:22;;;;;;;6.15;0.80;;;18.90;32.50;;;;;;4388286;32;20081;-33
2021/05/03 03:25:48;;;;;;;1.42;0.70;;;19.10;32.30;;;;;;4388364;32;20551;-34
2021/05/03 03:28:15;;;;;;;3.12;0.98;;;19.30;32.30;;;;;;4388590;32;20070;-33
2021/05/03 03:30:41;;;;;;;2.40;0.80;;;19.60;32.00;;;;;;4388905;32;20160;-36
2021/05/03 03:33:08;;;;;;;1.58;0.75;;;20.00;31.60;;;;;;4388775;32;20172;-39
2021/05/03 03:35:34;;;;;;;1.00;0.60;;;20.50;31.10;;;;;;4386836;32;20097;-39
2021/05/03 03:38:00;;;;;;;1.75;0.62;;;21.00;30.50;;;;;;4388541;32;20237;-40
2021/05/03 03:40:27;;;;;;;0.95;0.75;;;21.50;30.00;;;;;;4386571;32;20154;-40
2021/05/03 03:42:53;;;;;;;0.82;0.55;;;21.90;29.60;;;;;;4388472;32;20141;-39
2021/05/03 03:45:20;;;;;;;3.25;0.70;;;22.40;29.20;;;;;;4387971;32;20199;-39
2021/05/03 03:47:46;;;;;;;1.02;0.70;;;22.90;29.20;;;;;;4388154;32;20072;-40
2021/05/03 03:50:13;;;;;;;1.98;0.80;;;23.40;28.10;;;;;;4388254;32;20168;-40
2021/05/03 03:52:39;;;;;;;1.42;0.60;;;23.80;27.70;;;;;;4388421;32;20077;-41
2021/05/03 03:55:07;;;;;;;1.52;0.70;;;24.30;27.10;;;;;;4370166;32;20081;-40
2021/05/03 03:57:33;;;;;;;2.65;0.80;;;24.70;26.90;;;;;;4345780;32;20157;-38
2021/05/03 04:00:00;;;;;;;3.75;1.08;;;25.10;26.60;;;;;;4370875;32;20078;-38
2021/05/03 04:02:27;;;;;;;0.90;0.77;;;25.50;26.50;;;;;;4370635;32;20066;-39
2021/05/03 04:05:03;;;;;;;1.87;1.02;;;25.80;25.90;;;;;;4358541;32;20073;-38
2021/05/03 04:10:27;;;;;;;;;;;26.10;25.50;;;;;;4370707;32;20074;-40
2021/05/03 04:21:08;;;;;;;3.17;0.80;;;26.80;25.00;;;;;;4355260;32;20070;-42
2021/05/03 04:23:49;;;;;;;1.73;0.95;;;26.80;24.70;;;;;;4355459;32;20090;-41
2021/05/03 04:26:17;;;;;;;2.65;0.90;;;27.00;25.00;;;;;;4355754;32;20535;-40
2021/05/03 04:28:48;;;;;;;1.62;0.70;;;27.10;24.50;;;;;;4355548;32;20490;-42
2021/05/03 04:31:14;;;;;;;1.05;0.80;;;27.30;24.40;;;;;;4355918;32;20065;-41
2021/05/03 04:33:41;;;;;;;14.43;1.85;;;27.40;24.40;;;;;;4369076;32;20078;-41
2021/05/03 04:36:08;;;;;;;1.95;0.73;;;27.70;24.40;;;;;;4357439;32;20085;-40
2021/05/03 04:38:34;;;;;;;2.45;0.68;;;28.00;24.40;;;;;;4370202;32;20513;-43
2021/05/03 04:41:01;;;;;;;0.75;0.60;;;28.30;23.80;;;;;;4357620;32;20565;-41
2021/05/03 04:43:27;;;;;;;1.25;0.70;;;28.50;23.50;;;;;;4370440;32;20082;-41
2021/05/03 04:45:54;;;;;;;2.60;1.15;;;28.80;23.60;;;;;;4370318;32;20070;-41
2021/05/03 04:48:20;;;;;;;0.75;0.62;;;29.00;23.40;;;;;;4357356;32;20132;-43
2021/05/03 04:50:47;;;;;;;4.72;0.60;;;29.20;23.00;;;;;;4358166;32;20074;-41
2021/05/03 04:53:13;;;;;;;1.00;0.57;;;29.40;23.80;;;;;;4357744;32;20486;-43
2021/05/03 04:55:40;;;;;;;3.90;0.70;;;29.70;23.30;;;;;;4370443;32;20150;-44
2021/05/03 04:58:06;;;;;;;1.12;0.50;;;30.00;23.20;;;;;;4369875;32;20272;-41
2021/05/03 05:00:33;;;;;;;4.57;0.60;;;30.30;22.80;;;;;;4370064;32;20507;-41
2021/05/03 05:02:59;;;;;;;0.52;0.43;;;30.50;22.80;;;;;;4369598;32;20231;-43
2021/05/03 05:05:27;;;;;;;0.80;0.50;;;30.80;22.30;;;;;;4371742;32;20078;-42
2021/05/03 05:07:55;;;;;;;3.05;0.65;;;31.10;22.10;;;;;;4372434;32;20082;-42
2021/05/03 05:10:21;;;;;;;5.75;0.60;;;31.20;22.10;;;;;;4374075;32;20101;-42
2021/05/03 05:12:49;;;;;;;1.25;0.50;;;31.40;21.90;;;;;;4374225;32;20066;-43
2021/05/03 05:15:16;;;;;;;4.43;0.50;;;31.60;22.00;;;;;;4375415;32;20139;-42
2021/05/03 05:17:43;;;;;;;1.17;0.60;;;31.80;21.90;;;;;;4373675;32;20084;-43
2021/05/03 05:20:10;;;;;;;3.62;0.80;;;32.00;21.80;;;;;;4361332;32;20560;-42
2021/05/03 05:22:37;;;;;;;3.55;0.60;;;32.10;21.50;;;;;;4375180;32;20074;-42
2021/05/03 05:25:05;;;;;;;1.23;0.50;;;32.20;21.60;;;;;;4375306;32;20066;-43
2021/05/03 05:27:32;;;;;;;5.18;0.70;;;32.20;21.50;;;;;;4374888;32;20105;-42
2021/05/03 05:29:58;;;;;;;1.62;0.62;;;32.20;21.50;;;;;;4375190;32;20066;-41
2021/05/03 05:32:25;;;;;;;3.10;0.80;;;32.20;21.60;;;;;;4374912;32;20482;-43
2021/05/03 05:34:51;;;;;;;1.27;0.73;;;32.10;21.50;;;;;;4375017;32;20058;-42
2021/05/03 05:37:18;;;;;;;2.00;0.60;;;32.10;21.50;;;;;;4375023;32;20074;-41
2021/05/03 05:39:44;;;;;;;1.42;0.50;;;32.20;21.70;;;;;;4374878;32;20145;-43
2021/05/03 05:42:11;;;;;;;7.60;0.70;;;32.20;21.60;;;;;;4375019;32;20092;-43
2021/05/03 05:44:37;;;;;;;3.10;0.68;;;32.40;21.60;;;;;;4375130;32;20073;-43
2021/05/03 05:47:04;;;;;;;0.80;0.62;;;32.50;21.60;;;;;;4375191;32;20070;-43
2021/05/03 05:49:30;;;;;;;3.03;0.50;;;32.60;21.70;;;;;;4374297;32;20078;-43
2021/05/03 05:51:57;;;;;;;0.80;0.50;;;32.70;21.70;;;;;;4374559;32;20150;-42
2021/05/03 05:54:24;;;;;;;8.88;0.90;;;32.90;21.60;;;;;;4374368;32;20132;-40
2021/05/03 05:56:53;;;;;;;19.52;2.37;;;33.00;21.50;;;;;;4375267;32;20081;-41
2021/05/03 05:59:19;;;;;;;1.23;0.60;;;33.20;21.40;;;;;;4374875;32;20157;-41
2021/05/03 06:01:46;;;;;;;2.80;0.50;;;33.30;21.40;;;;;;4373364;32;20315;-42
2021/05/03 06:04:12;;;;;;;13.65;1.58;;;33.40;21.30;;;;;;4374691;32;20090;-44
2021/05/03 06:06:39;;;;;;;17.27;1.25;;;33.60;21.50;;;;;;4373069;32;20070;-42
2021/05/03 06:09:05;;;;;;;0.60;0.50;;;33.60;21.50;;;;;;4374218;32;20068;-41
2021/05/03 06:11:32;;;;;;;1.45;0.55;;;33.70;21.50;;;;;;4374416;32;20062;-41
2021/05/03 06:13:58;;;;;;;8.48;0.70;;;33.80;21.50;;;;;;4374577;32;20093;-42
2021/05/03 06:16:25;;;;;;;2.40;0.60;;;33.90;21.40;;;;;;4374049;32;20070;-41
2021/05/03 06:18:54;;;;;;;5.20;0.80;;;34.00;21.30;;;;;;4374665;32;20061;-42
2021/05/03 06:21:20;;;;;;;2.90;0.85;;;34.10;21.30;;;;;;4373571;32;20490;-43
2021/05/03 06:23:47;;;;;;;5.28;0.70;;;34.20;21.40;;;;;;4374238;32;20179;-42
2021/05/03 06:26:13;;;;;;;0.47;0.40;;;34.20;21.20;;;;;;4374241;32;20117;-42
2021/05/03 06:28:39;;;;;;;1.87;0.62;;;34.20;21.20;;;;;;4373807;32;20162;-42
2021/05/03 06:31:06;;;;;;;8.80;0.95;;;34.30;21.10;;;;;;4374501;32;20238;-42
2021/05/03 06:33:32;;;;;;;20.90;1.70;;;34.20;21.10;;;;;;4374598;32;20077;-43
2021/05/03 06:35:59;;;;;;;0.75;0.40;;;34.20;21.40;;;;;;4373860;32;20055;-43
2021/05/03 06:38:25;;;;;;;1.10;0.60;;;34.20;21.20;;;;;;4373981;32;20076;-42
2021/05/03 06:40:52;;;;;;;13.30;1.30;;;34.20;21.20;;;;;;4374587;32;20456;-43
2021/05/03 06:43:18;;;;;;;3.65;0.47;;;34.20;21.40;;;;;;4374072;32;20055;-43
2021/05/03 06:45:45;;;;;;;2.47;0.68;;;34.10;21.20;;;;;;4374044;32;20089;-41
2021/05/03 06:48:12;;;;;;;10.60;0.70;;;34.00;21.30;;;;;;4373471;32;20054;-43
2021/05/03 06:50:46;;;;;;;1.50;0.70;;;33.90;21.30;;;;;;4373673;32;20069;-43
2021/05/03 06:53:13;;;;;;;1.85;0.50;;;33.90;21.40;;;;;;4373950;32;20504;-43
2021/05/03 06:55:45;;;;;;;0.52;0.40;;;33.90;21.50;;;;;;4373912;32;20078;-43
2021/05/03 06:58:12;;;;;;;1.10;0.50;;;33.90;21.50;;;;;;4373738;32;20058;-43
2021/05/03 07:00:40;;;;;;;5.72;0.60;;;34.00;21.60;;;;;;4373699;32;20094;-43
2021/05/03 07:03:11;;;;;;;4.97;0.73;;;34.10;21.60;;;;;;4373926;32;20162;-44
2021/05/03 07:05:38;;;;;;;4.03;0.70;;;34.20;21.60;;;;;;4372052;32;20149;-43
2021/05/03 07:08:05;;;;;;;4.55;0.70;;;34.30;21.60;;;;;;4372233;32;20070;-41
2021/05/03 07:10:34;;;;;;;0.98;0.80;;;34.40;21.70;;;;;;4373734;32;20068;-43
2021/05/03 07:13:01;;;;;;;7.65;1.10;;;34.40;21.70;;;;;;4371658;32;20466;-43
2021/05/03 07:15:28;;;;;;;5.72;0.70;;;34.40;21.70;;;;;;4373787;32;20081;-42
2021/05/03 07:17:54;;;;;;;8.40;1.80;;;34.50;21.70;;;;;;4383070;32;20143;-42
2021/05/03 07:20:22;;;;;;;1.85;0.93;;;34.60;21.70;;;;;;4388278;32;20154;-42
2021/05/03 07:22:48;;;;;;;1.17;0.55;;;34.70;21.70;;;;;;4388336;32;20066;-41
2021/05/03 07:25:15;;;;;;;3.08;0.55;;;34.90;21.60;;;;;;4388311;32;20066;-42
2021/05/03 07:27:41;;;;;;;1.83;0.60;;;35.00;21.50;;;;;;4388470;32;20153;-41
2021/05/03 07:30:10;;;;;;;6.50;0.68;;;34.90;21.50;;;;;;4388261;32;20070;-42
2021/05/03 07:32:37;;;;;;;8.68;1.20;;;35.00;21.70;;;;;;4370354;32;20155;-43
2021/05/03 07:35:06;;;;;;;3.47;0.77;;;35.10;21.60;;;;;;4370686;32;20569;-43
2021/05/03 07:37:33;;;;;;;5.95;1.12;;;35.00;21.60;;;;;;4358259;32;20138;-42
2021/05/03 07:40:00;;;;;;;1.58;0.90;;;35.00;21.60;;;;;;4358041;32;20199;-43
2021/05/03 07:42:26;;;;;;;1.85;0.68;;;34.90;21.50;;;;;;4370701;32;20133;-42
2021/05/03 07:44:53;;;;;;;2.90;0.75;;;34.90;21.60;;;;;;4358850;32;20193;-41
2021/05/03 07:47:19;;;;;;;1.20;0.80;;;34.90;21.60;;;;;;4370848;32;20077;-41
2021/05/03 07:49:46;;;;;;;1.75;0.60;;;34.90;21.60;;;;;;4370502;32;20075;-42
2021/05/03 07:52:12;;;;;;;4.45;0.75;;;35.00;21.50;;;;;;4370504;32;20073;-42
2021/05/03 07:54:38;;;;;;;0.85;0.57;;;35.10;21.50;;;;;;4370173;32;20109;-42
2021/05/03 07:57:05;;;;;;;3.10;0.90;;;35.30;21.40;;;;;;4370343;32;20066;-42
2021/05/03 07:59:32;;;;;;;2.97;0.70;;;35.30;21.50;;;;;;4358354;32;20065;-42
2021/05/03 08:01:58;;;;;;;0.80;0.50;;;35.40;21.50;;;;;;4370765;32;20172;-36
2021/05/03 08:04:25;;;;;;;1.70;0.77;;;35.40;21.30;;;;;;4384786;32;20058;-42
2021/05/03 08:06:55;;;;;;;1.00;0.88;;;35.50;21.30;;;;;;4388007;32;20075;-41
2021/05/03 08:09:21;;;;;;;1.87;0.70;;;35.60;21.30;;;;;;4387522;32;20547;-42
2021/05/03 08:11:48;;;;;;;2.05;0.70;;;35.70;21.30;;;;;;4387906;32;20845;-42
2021/05/03 08:14:18;;;;;;;4.82;0.70;;;35.70;21.20;;;;;;4387907;32;20577;-40
2021/05/03 08:16:48;;;;;;;1.33;0.70;;;35.80;21.20;;;;;;4386027;32;20062;-43
2021/05/03 08:19:15;;;;;;;1.40;0.70;;;35.90;21.10;;;;;;4372695;32;20522;-42
2021/05/03 08:21:41;;;;;;;1.25;0.60;;;36.00;21.10;;;;;;4372890;32;20145;-41
2021/05/03 08:24:08;;;;;;;3.30;1.27;;;36.10;21.00;;;;;;4370962;32;20572;-42
2021/05/03 08:26:34;;;;;;;0.85;0.70;;;36.30;21.20;;;;;;4372819;32;20138;-42
2021/05/03 08:29:02;;;;;;;2.28;0.77;;;36.30;21.20;;;;;;4372602;32;20070;-39
2021/05/03 08:31:29;;;;;;;1.73;0.70;;;36.30;21.00;;;;;;4372898;32;20141;-43
2021/05/03 08:33:56;;;;;;;3.17;0.95;;;36.30;21.10;;;;;;4371621;32;20109;-41
2021/05/03 08:36:22;;;;;;;4.72;1.02;;;36.40;21.00;;;;;;4372587;32;20058;-37
2021/05/03 08:38:49;;;;;;;2.78;1.02;;;36.50;21.20;;;;;;4372478;32;20055;-42
2021/05/03 08:41:16;;;;;;;3.97;1.02;;;36.50;21.10;;;;;;4372558;32;20502;-42
2021/05/03 08:43:46;;;;;;;3.65;0.82;;;36.40;21.10;;;;;;4370948;32;20086;-42
2021/05/03 08:46:26;;;;;;;2.87;0.85;;;36.30;21.20;;;;;;4375671;32;20501;-42
2021/05/03 08:49:06;;;;;;;2.45;1.02;;;36.20;21.20;;;;;;4375637;32;20082;-43
2021/05/03 08:54:18;;;;;;;2.62;0.90;;;36.40;21.40;;;;;;4374123;32;20074;-43
2021/05/03 08:56:44;;;;;;;0.75;0.65;;;36.50;21.40;;;;;;4375324;32;20081;-42
2021/05/03 08:59:14;;;;;;;2.05;0.70;;;36.70;21.20;;;;;;4375173;32;20137;-42
2021/05/03 09:01:48;;;;;;;4.65;1.12;;;36.80;21.20;;;;;;4375413;32;20560;-42
2021/05/03 09:04:15;;;;;;;3.33;0.80;;;37.00;21.30;;;;;;4375139;32;20058;-41
2021/05/03 09:07:06;;;;;;;1.08;0.77;;;37.10;21.10;;;;;;4375445;32;20131;-42
2021/05/03 09:09:41;;;;;;;3.47;0.70;;;37.20;21.20;;;;;;4375333;32;20058;-35
2021/05/03 09:12:13;;;;;;;1.48;0.70;;;37.20;21.20;;;;;;4375090;32;20542;-42
2021/05/03 09:14:48;;;;;;;3.80;0.65;;;37.30;21.10;;;;;;4374901;32;20539;-40
2021/05/03 09:17:29;;;;;;;1.30;0.70;;;37.30;21.20;;;;;;4380159;32;20080;-42
2021/05/03 09:19:57;;;;;;;3.83;0.70;;;37.40;21.00;;;;;;4390294;32;20193;-41
2021/05/03 09:22:35;;;;;;;4.10;1.00;;;37.60;21.00;;;;;;4390020;32;20165;-37
2021/05/03 09:25:30;;;;;;;3.20;1.00;;;37.60;20.90;;;;;;4390590;32;20065;-41
2021/05/03 09:28:18;;;;;;;1.05;0.70;;;37.60;21.00;;;;;;4390146;32;20064;-42
2021/05/03 09:30:56;;;;;;;0.88;0.60;;;37.50;21.00;;;;;;4390007;32;20057;-42
2021/05/03 09:33:41;;;;;;;1.75;0.80;;;37.60;21.00;;;;;;4389820;32;20064;-41
2021/05/03 09:36:10;;;;;;;1.83;0.75;;;37.50;20.90;;;;;;4390099;32;20069;-43
2021/05/03 09:38:46;;;;;;;3.92;0.90;;;37.50;20.90;;;;;;4390179;32;20077;-41
2021/05/03 09:41:23;;;;;;;1.27;0.70;;;37.40;21.00;;;;;;4390069;32;20061;-40
2021/05/03 09:44:07;;;;;;;1.75;0.93;;;37.40;21.00;;;;;;4389737;32;20531;-41
2021/05/03 09:46:42;;;;;;;4.18;1.00;;;37.30;21.00;;;;;;4389942;32;20076;-41
2021/05/03 09:49:16;;;;;;;3.22;0.60;;;37.40;21.00;;;;;;4389350;32;20157;-41
2021/05/03 09:51:57;;;;;;;1.55;0.57;;;37.50;21.60;;;;;;4389311;32;20518;-41
2021/05/03 09:54:29;;;;;;;1.80;0.60;;;37.60;21.10;;;;;;4388791;32;20139;-42
2021/05/03 09:57:09;;;;;;;0.80;0.77;;;37.60;21.00;;;;;;4388913;32;20089;-42
2021/05/03 09:59:49;;;;;;;4.97;0.62;;;37.70;21.00;;;;;;4387178;32;20077;-35
2021/05/03 10:02:26;;;;;;;2.72;0.70;;;37.80;21.00;;;;;;4388813;32;20058;-42
2021/05/03 10:05:03;;;;;;;1.00;0.70;;;37.90;20.90;;;;;;4388590;32;20160;-41
2021/05/03 10:07:31;;;;;;;2.67;0.70;;;38.00;20.90;;;;;;4388828;32;20072;-41
2021/05/03 10:10:02;;;;;;;0.95;0.70;;;38.00;20.90;;;;;;4388306;32;20131;-41
2021/05/03 10:12:29;;;;;;;1.20;1.10;;;38.00;20.90;;;;;;4388397;32;20562;-42
2021/05/03 10:14:58;;;;;;;1.23;0.70;;;38.00;21.00;;;;;;4388517;32;20057;-42
2021/05/03 10:17:24;;;;;;;6.30;0.90;;;37.90;21.00;;;;;;4382024;32;20570;-41
2021/05/03 10:19:51;;;;;;;15.82;1.37;;;38.00;20.90;;;;;;4371300;32;20478;-40
2021/05/03 10:22:21;;;;;;;2.62;0.68;;;38.00;20.90;;;;;;4372252;32;20050;-41
2021/05/03 10:24:54;;;;;;;1.08;0.82;;;37.90;20.80;;;;;;4373731;32;20065;-43
2021/05/03 10:27:21;;;;;;;2.05;0.80;;;38.00;20.90;;;;;;4371655;32;20069;-41
2021/05/03 10:29:49;;;;;;;1.23;0.60;;;38.00;20.70;;;;;;4359425;32;20083;-41
2021/05/03 10:32:23;;;;;;;1.62;0.75;;;37.80;20.80;;;;;;4373319;32;20142;-42
2021/05/03 10:34:58;;;;;;;4.53;0.90;;;37.70;20.90;;;;;;4371279;32;20085;-42
2021/05/03 10:37:34;;;;;;;3.80;0.80;;;37.40;21.00;;;;;;4372973;32;20197;-41
2021/05/03 10:40:05;;;;;;;9.95;2.05;;;37.20;21.20;;;;;;4373309;32;20077;-41
2021/05/03 10:42:32;;;;;;;2.85;0.80;;;36.80;21.20;;;;;;4373061;32;20483;-41
2021/05/03 10:45:15;;;;;;;4.12;0.90;;;36.50;21.20;;;;;;4372501;32;20161;-42
2021/05/03 10:47:45;;;;;;;2.72;0.62;;;36.40;21.40;;;;;;4371981;32;20107;-41
2021/05/03 10:50:41;;;;;;;1.15;0.60;;;36.30;21.40;;;;;;4372166;32;20070;-42
2021/05/03 10:53:27;;;;;;;2.62;0.70;;;36.10;21.50;;;;;;4374062;32;20062;-41
2021/05/03 10:56:24;;;;;;;1.92;0.60;;;35.90;21.60;;;;;;4373646;32;20068;-41
2021/05/03 10:58:56;;;;;;;1.55;0.90;;;35.60;21.50;;;;;;4359996;32;20088;-41
2021/05/03 11:01:22;;;;;;;1.10;1.00;;;35.40;21.70;;;;;;4373509;32;20443;-41
2021/05/03 11:03:55;;;;;;;1.62;1.10;;;35.20;21.90;;;;;;4373229;32;20055;-40
2021/05/03 11:06:37;;;;;;;4.50;1.00;;;35.10;22.40;;;;;;4372779;32;20150;-41
2021/05/03 11:09:28;;;;;;;1.85;0.85;;;35.10;22.00;;;;;;4373387;32;20060;-41
2021/05/03 11:11:59;;;;;;;2.83;1.23;;;35.10;22.00;;;;;;4373735;32;20072;-43
2021/05/03 11:14:29;;;;;;;5.00;0.88;;;35.00;22.00;;;;;;4373083;32;20124;-41
2021/05/03 11:17:18;;;;;;;5.53;0.70;;;34.80;21.90;;;;;;4376740;32;20131;-41
2021/05/03 11:20:00;;;;;;;4.18;0.95;;;34.80;22.10;;;;;;4387044;32;20532;-40
2021/05/03 11:22:40;;;;;;;3.15;0.82;;;34.80;22.10;;;;;;4387918;32;20519;-43
2021/05/03 11:25:28;;;;;;;4.30;0.93;;;34.80;22.00;;;;;;4388407;32;20078;-40
2021/05/03 11:28:07;;;;;;;2.03;0.90;;;35.00;21.80;;;;;;4387890;32;20174;-41
2021/05/03 11:30:51;;;;;;;2.20;0.75;;;35.20;21.70;;;;;;4375527;32;20063;-41
2021/05/03 11:33:25;;;;;;;;;;;35.40;21.70;;;;;;4388535;32;20078;-42
2021/05/03 11:36:02;;;;;;;4.12;1.00;;;35.80;21.70;;;;;;4386526;32;20019;-43
2021/05/03 11:46:25;;;;;;;6.95;0.98;;;36.30;21.10;;;;;;4387970;32;20074;-40
2021/05/03 11:48:56;;;;;;;4.25;0.98;;;36.20;21.00;;;;;;4387963;32;20081;-41
2021/05/03 11:51:23;;;;;;;1.77;0.70;;;36.10;21.00;;;;;;4387984;32;20062;-42
2021/05/03 11:53:49;;;;;;;4.45;0.50;;;36.00;21.00;;;;;;4388080;32;20066;-41
2021/05/03 11:56:19;;;;;;;6.72;1.12;;;35.90;21.10;;;;;;4388262;32;20089;-42
2021/05/03 11:59:06;;;;;;;3.47;0.50;;;35.90;21.10;;;;;;4388159;32;20074;-41
2021/05/03 12:01:32;;;;;;;3.33;1.08;;;35.90;21.10;;;;;;4387926;32;20097;-42
2021/05/03 12:03:59;;;;;;;6.47;0.80;;;36.10;21.10;;;;;;4388041;32;20085;-41
2021/05/03 12:06:42;;;;;;;1.55;0.82;;;36.20;21.10;;;;;;4387902;32;20072;-41
2021/05/03 12:09:15;;;;;;;3.60;0.60;;;36.40;21.10;;;;;;4388195;32;20520;-42
2021/05/03 12:11:55;;;;;;;2.85;0.60;;;36.40;20.80;;;;;;4386253;32;20062;-42
2021/05/03 12:14:47;;;;;;;2.97;0.70;;;36.30;20.70;;;;;;4387857;32;20099;-41
2021/05/03 12:17:34;;;;;;;8.02;0.80;;;36.00;20.80;;;;;;4382509;32;20454;-40
2021/05/03 12:20:19;;;;;;;3.22;0.50;;;35.50;20.70;;;;;;4371848;32;20089;-41
2021/05/03 12:23:08;;;;;;;2.75;0.47;;;35.20;21.00;;;;;;4372852;32;20054;-41
2021/05/03 12:25:50;;;;;;;2.00;0.60;;;34.90;21.00;;;;;;4372934;32;20086;-42
2021/05/03 12:28:21;;;;;;;2.15;0.60;;;34.70;21.10;;;;;;4371043;32;20057;-41
2021/05/03 12:30:49;;;;;;;4.37;0.73;;;34.60;21.30;;;;;;4372908;32;20256;-41
2021/05/03 12:33:20;;;;;;;1.25;0.55;;;34.40;21.60;;;;;;4358892;32;20085;-41
2021/05/03 12:35:50;;;;;;;3.87;0.90;;;34.30;21.60;;;;;;4372721;32;20062;-42
2021/05/03 12:38:31;;;;;;;1.37;0.85;;;34.10;21.70;;;;;;4371214;32;20170;-40
2021/05/03 12:41:02;;;;;;;0.70;0.50;;;33.90;21.90;;;;;;4372909;32;20057;-42
2021/05/03 12:43:33;;;;;;;1.90;0.80;;;33.50;21.90;;;;;;4372186;32;20094;-40
2021/05/03 12:48:45;;;;;;;6.28;1.05;;;33.00;22.20;;;;;;4372148;32;20065;-43
2021/05/03 12:56:42;;;;;;;3.30;0.70;;;32.80;22.40;;;;;;4372647;32;20100;-41
2021/05/03 13:02:04;;;;;;;4.18;0.60;;;32.90;22.40;;;;;;4372254;32;20162;-41
2021/05/03 13:04:50;;;;;;;5.32;0.60;;;33.10;22.20;;;;;;4372299;32;20165;-41
2021/05/03 13:07:35;;;;;;;1.83;0.60;;;33.10;22.20;;;;;;4371217;32;20077;-41
2021/05/03 13:29:08;;;;;;;4.78;0.60;;;33.10;22.20;;;;;;4387012;32;20065;-43
2021/05/03 13:31:36;;;;;;;4.47;0.70;;;33.00;22.30;;;;;;4389386;32;20104;-41
2021/05/03 13:34:08;;;;;;;2.08;0.60;;;32.80;22.30;;;;;;4390267;32;20062;-42
2021/05/03 13:36:35;;;;;;;3.17;0.70;;;32.60;22.30;;;;;;4388490;32;20086;-41
2021/05/03 13:39:03;;;;;;;3.10;0.60;;;32.30;22.50;;;;;;4389272;32;20564;-42
2021/05/03 13:41:37;;;;;;;1.50;0.80;;;32.10;22.60;;;;;;4389601;32;20085;-43
2021/05/03 13:44:05;;;;;;;3.35;0.60;;;31.80;22.80;;;;;;4389666;32;20100;-42
2021/05/03 13:46:31;;;;;;;8.18;1.08;;;31.60;22.80;;;;;;4389780;32;20080;-43
2021/05/03 13:48:58;;;;;;;4.65;0.93;;;31.50;23.00;;;;;;4389800;32;20510;-42
2021/05/03 13:51:25;;;;;;;4.70;0.60;;;31.30;23.10;;;;;;4389783;32;20078;-42
2021/05/03 13:53:53;;;;;;;2.78;0.73;;;31.30;23.20;;;;;;4389594;32;20057;-44